createdAt,value
2022-11-17T00:02:15.123Z,5.56
2022-11-17T00:04:41.829Z,5.55
2022-11-17T00:07:08.543Z,5.54
2022-11-17T00:09:36.746Z,5.46
2022-11-17T00:12:22.477Z,5.45
2022-11-17T00:14:49.580Z,5.45
2022-11-17T00:17:16.206Z,5.42
2022-11-17T00:19:58.513Z,5.43
2022-11-17T00:22:25.799Z,5.45
2022-11-17T00:24:52.637Z,5.46
2022-11-17T00:27:19.340Z,5.43
2022-11-17T00:29:45.991Z,5.42
2022-11-17T00:32:29.873Z,5.35
2022-11-17T00:34:56.630Z,5.39
2022-11-17T00:37:23.507Z,5.39
2022-11-17T00:39:50.174Z,5.41
2022-11-17T00:42:16.832Z,5.39
2022-11-17T00:44:43.535Z,5.36
2022-11-17T00:47:10.809Z,5.39
2022-11-17T00:49:37.464Z,5.42
2022-11-17T00:52:04.332Z,5.37
2022-11-17T00:54:30.955Z,5.33
2022-11-17T00:56:57.571Z,5.35
2022-11-17T00:59:24.267Z,5.35
2022-11-17T01:01:51.247Z,5.33
2022-11-17T01:04:18.070Z,5.35
2022-11-17T01:06:47.476Z,5.38
2022-11-17T01:09:17.237Z,5.38
2022-11-17T01:11:44.226Z,5.38
2022-11-17T01:14:15.704Z,5.42
2022-11-17T01:16:42.690Z,5.43
2022-11-17T01:19:15.641Z,5.45
2022-11-17T01:21:42.846Z,5.42
2022-11-17T01:24:11.580Z,5.45
2022-11-17T01:26:39.104Z,5.46
2022-11-17T01:29:07.391Z,5.43
2022-11-17T01:31:36.811Z,5.40
2022-11-17T01:34:04.079Z,5.42
2022-11-17T01:36:48.837Z,5.42
2022-11-17T01:39:15.550Z,5.39
2022-11-17T01:41:42.181Z,5.39
2022-11-17T01:44:39.257Z,5.39
2022-11-17T01:47:18.616Z,5.36
2022-11-17T01:49:46.661Z,5.38
2022-11-17T01:52:13.801Z,5.38
2022-11-17T01:54:46.790Z,5.38
2022-11-17T01:57:20.030Z,5.31
2022-11-17T01:59:52.481Z,5.37
2022-11-17T02:02:20.475Z,5.36
2022-11-17T02:04:54.166Z,5.39
2022-11-17T02:07:32.030Z,5.35
2022-11-17T02:10:00.956Z,5.35
2022-11-17T02:12:31.223Z,5.35
2022-11-17T02:14:58.664Z,5.33
2022-11-17T02:17:33.817Z,5.32
2022-11-17T02:20:08.953Z,5.32
2022-11-17T02:22:51.805Z,5.38
2022-11-17T02:25:33.597Z,5.33
2022-11-17T02:28:27.304Z,5.33
2022-11-17T02:31:21.033Z,5.36
2022-11-17T02:33:59.943Z,5.35
2022-11-17T02:36:47.089Z,5.39
2022-11-17T02:39:23.238Z,5.37
2022-11-17T02:42:15.718Z,5.37
2022-11-17T02:44:53.358Z,5.30
2022-11-17T02:47:32.986Z,5.32
2022-11-17T02:50:05.768Z,5.31
2022-11-17T02:52:33.582Z,5.32
2022-11-17T02:55:02.869Z,5.32
2022-11-17T02:57:32.492Z,5.34
2022-11-17T03:00:02.277Z,5.33
2022-11-17T03:02:36.405Z,5.29
2022-11-17T03:05:19.374Z,5.31
2022-11-17T03:08:16.567Z,5.29
2022-11-17T03:10:44.153Z,5.28
2022-11-17T03:13:31.506Z,5.25
2022-11-17T03:16:10.753Z,5.25
2022-11-17T03:18:44.361Z,5.22
2022-11-17T03:21:26.208Z,5.27
2022-11-17T03:24:07.943Z,5.21
2022-11-17T03:26:38.238Z,5.21
2022-11-17T03:29:08.602Z,5.21
2022-11-17T03:31:37.468Z,5.22
2022-11-17T03:34:08.763Z,5.22
2022-11-17T03:36:39.772Z,5.20
2022-11-17T03:39:13.614Z,5.18
2022-11-17T03:41:45.503Z,5.20
2022-11-17T03:44:14.830Z,5.18
2022-11-17T03:46:44.477Z,5.18
2022-11-17T03:49:26.306Z,5.18
2022-11-17T03:51:53.207Z,5.18
2022-11-17T03:54:20.108Z,5.11
2022-11-17T03:56:52.898Z,5.12
2022-11-17T03:59:51.864Z,5.13
2022-11-17T04:02:20.464Z,5.11
2022-11-17T04:05:02.513Z,5.08
2022-11-17T04:07:29.229Z,5.05
2022-11-17T04:09:55.906Z,5.07
2022-11-17T04:12:37.952Z,5.04
2022-11-17T04:15:20.466Z,5.05
2022-11-17T04:17:47.210Z,5.02
2022-11-17T04:20:13.862Z,5.00
2022-11-17T04:22:40.520Z,5.02
2022-11-17T04:25:07.681Z,5.00
2022-11-17T04:27:49.605Z,5.00
2022-11-17T04:30:16.275Z,4.97
2022-11-17T04:32:42.930Z,5.01
2022-11-17T04:35:09.624Z,4.98
2022-11-17T04:37:36.239Z,4.95
2022-11-17T04:40:03.182Z,4.99
2022-11-17T04:42:29.772Z,5.04
2022-11-17T04:44:56.436Z,5.01
2022-11-17T04:47:23.108Z,5.00
2022-11-17T04:49:49.755Z,5.00
2022-11-17T04:52:16.445Z,5.01
2022-11-17T04:54:43.068Z,5.02
2022-11-17T04:57:09.747Z,5.00
2022-11-17T04:59:36.791Z,5.00
2022-11-17T05:02:06.084Z,5.00
2022-11-17T05:04:48.319Z,5.02
2022-11-17T05:07:14.983Z,5.00
2022-11-17T05:09:41.647Z,5.03
2022-11-17T05:12:24.786Z,5.01
2022-11-17T05:14:52.419Z,5.03
2022-11-17T05:17:19.091Z,5.06
2022-11-17T05:19:49.053Z,4.99
2022-11-17T05:22:35.599Z,5.04
2022-11-17T05:25:02.465Z,5.01
2022-11-17T05:27:29.290Z,5.00
2022-11-17T05:29:56.045Z,4.99
2022-11-17T05:32:22.789Z,5.00
2022-11-17T05:34:49.454Z,5.03
2022-11-17T05:37:16.227Z,5.04
2022-11-17T05:39:42.895Z,5.03
2022-11-17T05:42:10.204Z,5.00
2022-11-17T05:44:36.866Z,5.00
2022-11-17T05:47:03.505Z,4.98
2022-11-17T05:49:33.370Z,5.00
2022-11-17T05:52:00.051Z,5.01
2022-11-17T05:54:27.045Z,5.03
2022-11-17T05:56:58.363Z,5.00
2022-11-17T05:59:44.133Z,5.04
2022-11-17T06:02:17.699Z,5.04
2022-11-17T06:04:46.281Z,5.03
2022-11-17T06:07:12.998Z,5.01
2022-11-17T06:09:41.919Z,5.01
2022-11-17T06:12:09.152Z,5.02
2022-11-17T06:14:37.681Z,5.06
2022-11-17T06:17:11.815Z,5.09
2022-11-17T06:19:44.129Z,5.09
2022-11-17T06:22:12.780Z,5.10
2022-11-17T06:24:42.008Z,5.11
2022-11-17T06:27:10.781Z,5.13
2022-11-17T06:29:43.658Z,5.15
2022-11-17T06:32:13.897Z,5.15
2022-11-17T06:34:42.329Z,5.14
2022-11-17T06:37:09.061Z,5.17
2022-11-17T06:39:35.708Z,5.17
2022-11-17T06:42:02.352Z,5.13
2022-11-17T06:44:28.974Z,5.17
2022-11-17T06:46:55.604Z,5.19
2022-11-17T06:49:22.271Z,5.21
2022-11-17T06:51:48.881Z,5.22
2022-11-17T06:54:15.624Z,5.22
2022-11-17T06:56:42.571Z,5.24
2022-11-17T06:59:09.311Z,5.25
2022-11-17T07:01:37.702Z,5.29
2022-11-17T07:04:04.784Z,5.29
2022-11-17T07:06:32.232Z,5.29
2022-11-17T07:08:58.872Z,5.34
2022-11-17T07:11:25.605Z,5.30
2022-11-17T07:13:52.273Z,5.35
2022-11-17T07:16:23.728Z,5.37
2022-11-17T07:18:52.323Z,5.34
2022-11-17T07:21:19.340Z,5.37
2022-11-17T07:23:46.294Z,5.41
2022-11-17T07:26:13.279Z,5.42
2022-11-17T07:28:39.944Z,5.45
2022-11-17T07:31:08.773Z,5.45
2022-11-17T07:33:36.408Z,5.43
2022-11-17T07:36:05.815Z,5.41
2022-11-17T07:38:34.603Z,5.44
2022-11-17T07:41:01.964Z,5.50
2022-11-17T07:43:29.133Z,5.48
2022-11-17T07:45:55.926Z,5.50
2022-11-17T07:48:22.926Z,5.47
2022-11-17T07:50:49.839Z,5.48
2022-11-17T07:53:16.535Z,5.50
2022-11-17T07:55:43.232Z,5.52
2022-11-17T07:58:09.974Z,5.54
2022-11-17T08:00:36.768Z,5.53
2022-11-17T08:03:04.760Z,5.53
2022-11-17T08:05:41.533Z,5.54
2022-11-17T08:08:10.003Z,5.59
2022-11-17T08:10:36.798Z,5.60
2022-11-17T08:13:04.064Z,5.56
2022-11-17T08:15:31.383Z,5.62
2022-11-17T08:18:00.203Z,5.62
2022-11-17T08:20:29.351Z,5.64
2022-11-17T08:22:56.883Z,5.63
2022-11-17T08:25:25.764Z,5.69
2022-11-17T08:27:59.771Z,5.65
2022-11-17T08:30:27.140Z,5.68
2022-11-17T08:32:54.786Z,5.72
2022-11-17T08:35:24.729Z,5.71
2022-11-17T08:37:52.566Z,5.74
2022-11-17T08:40:20.023Z,5.74
2022-11-17T08:42:47.140Z,5.76
2022-11-17T08:45:14.398Z,5.79
2022-11-17T08:47:41.459Z,5.81
2022-11-17T08:50:08.890Z,5.83
2022-11-17T08:52:35.589Z,5.85
2022-11-17T08:55:02.807Z,5.88
2022-11-17T08:57:30.638Z,5.90
2022-11-17T08:59:57.678Z,5.92
2022-11-17T09:02:24.932Z,6.01
2022-11-17T09:04:51.719Z,6.00
2022-11-17T09:07:18.476Z,6.00
2022-11-17T09:09:46.412Z,6.02
2022-11-17T09:12:13.125Z,6.01
2022-11-17T09:14:39.783Z,6.06
2022-11-17T09:17:06.729Z,6.09
2022-11-17T09:19:33.600Z,6.08
2022-11-17T09:22:03.461Z,6.33
2022-11-17T09:24:30.087Z,6.31
2022-11-17T09:26:57.574Z,6.29
2022-11-17T09:29:24.423Z,6.28
2022-11-17T09:31:51.108Z,6.38
2022-11-17T09:34:17.949Z,6.50
2022-11-17T09:36:44.744Z,6.50
2022-11-17T09:39:11.421Z,6.61
2022-11-17T09:41:45.167Z,6.58
2022-11-17T09:44:18.201Z,6.49
2022-11-17T09:47:01.226Z,6.31
2022-11-17T09:49:43.088Z,6.28
2022-11-17T09:52:25.783Z,6.23
2022-11-17T09:54:57.061Z,6.23
2022-11-17T09:57:35.278Z,6.21
2022-11-17T10:00:07.732Z,6.21
2022-11-17T10:02:34.609Z,6.37
2022-11-17T10:05:01.612Z,6.35
2022-11-17T10:07:31.692Z,6.52
2022-11-17T10:10:00.900Z,6.44
2022-11-17T10:12:34.777Z,6.34
2022-11-17T10:15:21.014Z,6.30
2022-11-17T10:17:47.897Z,6.26
2022-11-17T10:20:17.400Z,6.24
2022-11-17T10:22:46.336Z,6.24
2022-11-17T10:25:37.795Z,6.27
2022-11-17T10:28:06.816Z,6.31
2022-11-17T10:30:33.548Z,6.33
2022-11-17T10:33:02.457Z,6.34
2022-11-17T10:35:30.796Z,6.36
2022-11-17T10:38:21.097Z,6.38
2022-11-17T10:40:50.873Z,6.43
2022-11-17T10:43:27.478Z,6.48
2022-11-17T10:45:54.091Z,6.54
2022-11-17T10:48:37.083Z,6.58
2022-11-17T10:51:09.243Z,6.72
2022-11-17T10:53:46.241Z,6.97
2022-11-17T10:56:17.847Z,7.17
2022-11-17T10:59:00.145Z,7.16
2022-11-17T11:01:30.950Z,7.13
2022-11-17T11:03:57.727Z,7.08
2022-11-17T11:06:28.232Z,7.01
2022-11-17T11:09:10.155Z,6.99
2022-11-17T11:11:46.945Z,7.12
2022-11-17T11:14:44.016Z,7.08
2022-11-17T11:17:13.631Z,7.08
2022-11-17T11:19:42.331Z,7.07
2022-11-17T11:22:08.952Z,7.09
2022-11-17T11:24:55.174Z,7.20
2022-11-17T11:27:52.396Z,7.31
2022-11-17T11:30:19.942Z,7.30
2022-11-17T11:33:17.295Z,7.23
2022-11-17T11:35:57.244Z,7.22
2022-11-17T11:38:59.106Z,7.24
2022-11-17T11:41:40.099Z,7.37
2022-11-17T11:44:21.033Z,7.27
2022-11-17T11:47:22.856Z,7.22
2022-11-17T11:50:15.103Z,7.17
2022-11-17T11:52:48.972Z,7.25
2022-11-17T11:55:32.026Z,7.30
2022-11-17T11:58:08.875Z,7.31
2022-11-17T12:00:35.788Z,7.23
2022-11-17T12:03:19.659Z,7.14
2022-11-17T12:06:32.127Z,7.11
2022-11-17T12:09:09.894Z,7.21
2022-11-17T12:11:55.236Z,7.14
2022-11-17T12:14:21.993Z,7.12
2022-11-17T12:16:48.888Z,7.21
2022-11-17T12:19:46.097Z,7.37
2022-11-17T12:22:29.081Z,7.40
2022-11-17T12:24:58.228Z,7.35
2022-11-17T12:27:40.920Z,7.37
2022-11-17T12:30:38.244Z,7.39
2022-11-17T12:33:05.351Z,7.45
2022-11-17T12:35:32.950Z,7.44
2022-11-17T12:38:16.504Z,7.33
2022-11-17T12:40:46.896Z,7.30
2022-11-17T12:43:26.168Z,7.21
2022-11-17T12:45:52.925Z,7.22
2022-11-17T12:48:33.401Z,7.17
2022-11-17T12:51:10.727Z,7.15
2022-11-17T12:53:37.403Z,7.17
2022-11-17T12:56:14.001Z,7.17
2022-11-17T12:58:55.998Z,7.24
2022-11-17T13:01:53.061Z,7.35
2022-11-17T13:04:43.856Z,7.31
2022-11-17T13:07:25.867Z,7.33
2022-11-17T13:09:57.066Z,7.48
2022-11-17T13:12:26.461Z,7.37
2022-11-17T13:14:55.092Z,7.38
2022-11-17T13:17:29.592Z,7.28
2022-11-17T13:19:59.759Z,7.26
2022-11-17T13:22:30.088Z,7.25
2022-11-17T13:24:57.897Z,7.23
2022-11-17T13:27:27.347Z,7.25
2022-11-17T13:30:25.580Z,7.23
2022-11-17T13:32:52.634Z,7.23
2022-11-17T13:35:35.512Z,7.24
2022-11-17T13:38:05.887Z,7.26
2022-11-17T13:40:34.926Z,7.26
2022-11-17T13:43:03.645Z,7.22
2022-11-17T13:45:30.731Z,7.59
2022-11-17T13:47:59.465Z,7.61
2022-11-17T13:50:30.892Z,7.54
2022-11-17T13:52:58.598Z,7.45
2022-11-17T13:55:26.308Z,7.54
2022-11-17T13:57:58.941Z,7.56
2022-11-17T14:00:26.510Z,7.68
2022-11-17T14:02:56.256Z,7.55
2022-11-17T14:05:25.846Z,7.62
2022-11-17T14:07:54.598Z,7.67
2022-11-17T14:10:21.367Z,7.54
2022-11-17T14:12:51.711Z,7.50
2022-11-17T14:15:28.958Z,7.46
2022-11-17T14:17:58.076Z,7.46
2022-11-17T14:20:24.752Z,7.42
2022-11-17T14:23:08.599Z,7.38
2022-11-17T14:25:38.656Z,7.36
2022-11-17T14:28:12.082Z,7.36
2022-11-17T14:30:38.749Z,7.32
2022-11-17T14:33:10.509Z,7.35
2022-11-17T14:35:40.032Z,7.35
2022-11-17T14:38:09.350Z,7.32
2022-11-17T14:40:36.017Z,7.29
2022-11-17T14:43:02.754Z,7.28
2022-11-17T14:45:29.863Z,7.27
2022-11-17T14:47:56.550Z,7.27
2022-11-17T14:50:23.238Z,7.23
2022-11-17T14:52:49.872Z,7.26
2022-11-17T14:55:16.662Z,7.22
2022-11-17T14:57:43.377Z,7.22
2022-11-17T15:00:14.536Z,7.19
2022-11-17T15:02:43.379Z,7.18
2022-11-17T15:05:10.814Z,7.17
2022-11-17T15:07:38.296Z,7.16
2022-11-17T15:10:06.895Z,7.14
2022-11-17T15:12:33.575Z,7.13
2022-11-17T15:15:00.455Z,7.08
2022-11-17T15:17:28.293Z,7.05
2022-11-17T15:19:55.173Z,7.00
2022-11-17T15:22:21.989Z,7.03
2022-11-17T15:24:48.700Z,7.02
2022-11-17T15:27:15.975Z,6.96
2022-11-17T15:29:42.643Z,6.98
2022-11-17T15:32:09.386Z,6.99
2022-11-17T15:34:36.079Z,6.95
2022-11-17T15:37:02.956Z,6.90
2022-11-17T15:39:30.658Z,6.95
2022-11-17T15:41:57.451Z,6.90
2022-11-17T15:44:24.505Z,6.90
2022-11-17T15:46:51.284Z,6.90
2022-11-17T15:49:18.324Z,6.89
2022-11-17T15:51:45.520Z,6.87
2022-11-17T15:54:18.532Z,6.89
2022-11-17T15:56:48.008Z,6.85
2022-11-17T15:59:15.123Z,6.84
2022-11-17T16:01:42.105Z,6.84
2022-11-17T16:04:12.082Z,6.83
2022-11-17T16:06:41.265Z,6.79
2022-11-17T16:09:09.063Z,6.80
2022-11-17T16:11:36.425Z,6.78
2022-11-17T16:14:03.584Z,6.76
2022-11-17T16:16:39.531Z,6.76
2022-11-17T16:19:06.487Z,6.79
2022-11-17T16:21:33.530Z,6.76
2022-11-17T16:24:01.030Z,6.74
2022-11-17T16:26:29.032Z,6.72
2022-11-17T16:28:57.627Z,6.71
2022-11-17T16:31:26.151Z,6.65
2022-11-17T16:33:55.671Z,6.64
2022-11-17T16:36:31.345Z,6.61
2022-11-17T16:39:02.598Z,6.60
2022-11-17T16:41:36.682Z,6.57
2022-11-17T16:44:08.426Z,6.56
2022-11-17T16:46:35.529Z,6.57
2022-11-17T16:49:05.188Z,6.58
2022-11-17T16:51:32.624Z,6.57
2022-11-17T16:54:02.274Z,6.57
2022-11-17T16:56:29.877Z,6.57
2022-11-17T16:58:56.670Z,6.56
2022-11-17T17:01:26.513Z,6.53
2022-11-17T17:03:57.965Z,6.50
2022-11-17T17:06:24.977Z,6.48
2022-11-17T17:08:55.821Z,6.45
2022-11-17T17:11:23.103Z,6.43
2022-11-17T17:13:50.086Z,6.41
2022-11-17T17:16:19.309Z,6.40
2022-11-17T17:18:46.003Z,6.39
2022-11-17T17:21:16.591Z,6.32
2022-11-17T17:23:46.496Z,6.32
2022-11-17T17:26:16.830Z,6.32
2022-11-17T17:28:45.295Z,6.34
2022-11-17T17:31:19.629Z,6.30
2022-11-17T17:33:48.365Z,6.28
2022-11-17T17:36:17.893Z,6.28
2022-11-17T17:38:47.807Z,6.25
2022-11-17T17:41:20.090Z,6.22
2022-11-17T17:43:53.646Z,6.22
2022-11-17T17:46:20.321Z,6.17
2022-11-17T17:48:47.034Z,6.14
2022-11-17T17:51:19.812Z,6.12
2022-11-17T17:53:50.191Z,6.11
2022-11-17T17:56:19.040Z,6.08
2022-11-17T17:58:48.816Z,6.08
2022-11-17T18:01:15.993Z,6.04
2022-11-17T18:03:45.949Z,6.03
2022-11-17T18:06:14.312Z,5.98
2022-11-17T18:08:41.111Z,5.96
2022-11-17T18:11:12.515Z,5.97
2022-11-17T18:13:42.412Z,6.00
2022-11-17T18:16:12.467Z,5.99
2022-11-17T18:18:40.049Z,5.98
2022-11-17T18:21:09.166Z,5.99
2022-11-17T18:23:36.553Z,5.98
2022-11-17T18:26:16.421Z,5.98
2022-11-17T18:28:49.116Z,5.95
2022-11-17T18:31:15.746Z,5.96
2022-11-17T18:33:45.307Z,5.96
2022-11-17T18:36:12.294Z,5.93
2022-11-17T18:38:39.184Z,5.90
2022-11-17T18:41:06.899Z,5.88
2022-11-17T18:43:34.074Z,5.89
2022-11-17T18:46:03.161Z,5.89
2022-11-17T18:48:32.492Z,5.88
2022-11-17T18:51:18.669Z,5.90
2022-11-17T18:53:46.088Z,5.87
2022-11-17T18:56:16.332Z,5.86
2022-11-17T18:58:43.314Z,5.83
2022-11-17T19:01:14.802Z,5.80
2022-11-17T19:03:43.337Z,5.77
2022-11-17T19:06:11.661Z,5.75
2022-11-17T19:08:38.704Z,5.74
2022-11-17T19:11:08.488Z,5.70
2022-11-17T19:13:37.588Z,5.64
2022-11-17T19:16:08.434Z,5.58
2022-11-17T19:18:35.851Z,5.49
2022-11-17T19:21:06.273Z,5.47
2022-11-17T19:23:34.757Z,5.43
2022-11-17T19:26:05.409Z,5.44
2022-11-17T19:28:33.095Z,5.44
2022-11-17T19:31:02.062Z,5.37
2022-11-17T19:33:30.718Z,5.34
2022-11-17T19:35:57.498Z,5.34
2022-11-17T19:38:24.243Z,5.31
2022-11-17T19:40:50.900Z,5.28
2022-11-17T19:43:20.300Z,5.27
2022-11-17T19:45:47.104Z,5.24
2022-11-17T19:48:13.752Z,5.23
2022-11-17T19:50:40.409Z,5.22
2022-11-17T19:53:07.097Z,5.14
2022-11-17T19:55:34.808Z,4.96
2022-11-17T19:58:01.506Z,4.87
2022-11-17T20:00:28.104Z,4.80
2022-11-17T20:02:54.775Z,4.86
2022-11-17T20:05:21.442Z,4.89
2022-11-17T20:07:48.134Z,4.90
2022-11-17T20:10:14.796Z,4.87
2022-11-17T20:12:43.412Z,4.84
2022-11-17T20:15:27.044Z,4.79
2022-11-17T20:17:57.183Z,4.44
2022-11-17T20:20:23.921Z,4.40
2022-11-17T20:22:50.692Z,4.45
2022-11-17T20:25:17.380Z,4.51
2022-11-17T20:27:44.033Z,4.57
2022-11-17T20:30:15.115Z,4.58
2022-11-17T20:32:42.110Z,4.48
2022-11-17T20:35:09.132Z,4.42
2022-11-17T20:37:35.969Z,4.43
2022-11-17T20:40:02.744Z,4.50
2022-11-17T20:42:29.423Z,4.47
2022-11-17T20:44:56.074Z,4.36
2022-11-17T20:47:27.483Z,4.28
2022-11-17T20:49:55.311Z,4.22
2022-11-17T20:52:22.016Z,4.23
2022-11-17T20:54:49.901Z,4.08
2022-11-17T20:57:16.766Z,4.09
2022-11-17T20:59:44.023Z,4.12
2022-11-17T21:02:11.715Z,4.16
2022-11-17T21:04:38.627Z,4.21
2022-11-17T21:07:05.431Z,4.17
2022-11-17T21:09:32.210Z,4.25
2022-11-17T21:11:59.101Z,4.23
2022-11-17T21:14:27.213Z,3.91
2022-11-17T21:16:56.287Z,3.87
2022-11-17T21:19:23.784Z,3.85
2022-11-17T21:21:51.841Z,3.76
2022-11-17T21:24:22.842Z,3.72
2022-11-17T21:26:51.871Z,3.76
2022-11-17T21:29:18.758Z,3.75
2022-11-17T21:31:45.637Z,3.71
2022-11-17T21:34:16.649Z,3.71
2022-11-17T21:36:43.797Z,3.76
2022-11-17T21:39:16.940Z,3.79
2022-11-17T21:41:44.060Z,3.81
2022-11-17T21:44:13.002Z,3.72
2022-11-17T21:46:39.777Z,3.62
2022-11-17T21:49:06.487Z,3.59
2022-11-17T21:51:38.891Z,3.59
2022-11-17T21:54:08.517Z,3.52
2022-11-17T21:56:36.163Z,3.63
2022-11-17T21:59:06.419Z,3.36
2022-11-17T22:01:34.042Z,3.40
2022-11-17T22:04:00.835Z,3.44
2022-11-17T22:06:28.247Z,3.40
2022-11-17T22:08:56.071Z,3.45
2022-11-17T22:11:40.660Z,3.42
2022-11-17T22:14:13.770Z,3.51
2022-11-17T22:16:45.673Z,3.47
2022-11-17T22:19:14.184Z,3.45
2022-11-17T22:21:41.571Z,3.47
2022-11-17T22:24:10.188Z,3.44
2022-11-17T22:26:38.598Z,3.26
2022-11-17T22:29:08.024Z,3.23
2022-11-17T22:31:34.826Z,3.08
2022-11-17T22:34:01.500Z,3.13
2022-11-17T22:36:28.125Z,3.04
2022-11-17T22:38:54.870Z,3.09
2022-11-17T22:41:23.347Z,3.19
2022-11-17T22:43:51.372Z,3.10
2022-11-17T22:46:19.677Z,3.13
2022-11-17T22:48:46.678Z,3.19
2022-11-17T22:51:34.232Z,3.22
2022-11-17T22:54:01.009Z,3.20
2022-11-17T22:56:27.763Z,3.17
2022-11-17T22:58:59.497Z,3.14
2022-11-17T23:01:26.722Z,3.09
2022-11-17T23:03:53.436Z,3.04
2022-11-17T23:06:21.305Z,3.03
2022-11-17T23:08:48.062Z,2.83
2022-11-17T23:11:35.975Z,2.74
2022-11-17T23:14:01.591Z,2.73
2022-11-17T23:16:28.294Z,2.69
2022-11-17T23:18:55.745Z,2.73
2022-11-17T23:21:23.675Z,2.72
2022-11-17T23:23:51.154Z,2.78
2022-11-17T23:26:20.650Z,2.86
2022-11-17T23:28:47.334Z,2.93
2022-11-17T23:31:16.332Z,2.94
2022-11-17T23:33:45.236Z,2.97
2022-11-17T23:36:14.661Z,2.94
2022-11-17T23:38:41.505Z,2.86
2022-11-17T23:41:10.660Z,2.85
2022-11-17T23:43:37.257Z,2.92
2022-11-17T23:46:07.417Z,2.94
2022-11-17T23:48:34.155Z,2.96
2022-11-17T23:51:05.965Z,3.03
2022-11-17T23:53:33.488Z,3.05
2022-11-17T23:56:01.032Z,3.00
2022-11-17T23:58:28.290Z,2.90
